Time;durP1;ratioP1;P1;durP2;ratioP2;P2;SDS_P1;SDS_P2;PMS_P1;PMS_P2;Temp;Humidity;BMP_temperature;BMP_pressure;BME280_temperature;BME280_humidity;BME280_pressure;Samples;Min_cycle;Max_cycle;Signal;HPM_P1;HPM_P2
2021/11/11 00:00:02;;;;;;;20.25;3.53;;;;;;;;;;5040088;28;20640;-46
2021/11/11 00:02:29;;;;;;;15.35;2.92;;;;;;;;;;5046642;28;20498;-51
2021/11/11 00:04:58;;;;;;;17.35;3.50;;;;;;;;;;5044461;28;20036;-46
2021/11/11 00:07:25;;;;;;;10.80;2.60;;;;;;;;;;5034098;28;20030;-48
2021/11/11 00:09:52;;;;;;;12.82;2.90;;;;;;;;;;5038996;28;20032;-43
2021/11/11 00:12:19;;;;;;;18.40;3.10;;;;;;;;;;5039039;28;20039;-47
2021/11/11 00:14:46;;;;;;;15.80;3.38;;;;;;;;;;5041287;28;20082;-43
2021/11/11 00:17:13;;;;;;;18.90;3.03;;;;;;;;;;5034821;28;20536;-49
2021/11/11 00:19:40;;;;;;;18.50;3.58;;;;;;;;;;5035481;28;20120;-47
2021/11/11 00:22:07;;;;;;;23.77;3.35;;;;;;;;;;5040202;28;20032;-50
2021/11/11 00:24:34;;;;;;;20.60;3.20;;;;;;;;;;5034945;28;20041;-44
2021/11/11 00:27:01;;;;;;;23.70;2.80;;;;;;;;;;5036959;28;20021;-47
2021/11/11 00:29:28;;;;;;;24.88;3.08;;;;;;;;;;5043311;28;20074;-51
2021/11/11 00:31:55;;;;;;;22.50;2.78;;;;;;;;;;5046275;28;20021;-51
2021/11/11 00:34:22;;;;;;;24.95;3.22;;;;;;;;;;5047245;28;20029;-54
2021/11/11 00:36:49;;;;;;;16.92;3.55;;;;;;;;;;5043516;28;20025;-56
2021/11/11 00:39:16;;;;;;;16.52;2.97;;;;;;;;;;5032301;28;20155;-47
2021/11/11 00:41:43;;;;;;;21.08;3.65;;;;;;;;;;5034668;28;20040;-41
2021/11/11 00:44:10;;;;;;;26.13;3.30;;;;;;;;;;5036945;28;20033;-50
2021/11/11 00:46:37;;;;;;;20.58;3.67;;;;;;;;;;5033552;28;20021;-42
2021/11/11 00:49:06;;;;;;;22.00;4.15;;;;;;;;;;5037313;28;20028;-50
2021/11/11 00:51:34;;;;;;;23.55;4.85;;;;;;;;;;5036722;28;20332;-48
2021/11/11 00:54:01;;;;;;;31.98;5.57;;;;;;;;;;5042223;28;20022;-47
2021/11/11 00:56:28;;;;;;;25.55;6.28;;;;;;;;;;5033035;28;20483;-44
2021/11/11 00:58:56;;;;;;;37.58;7.13;;;;;;;;;;5042860;28;20667;-49
2021/11/11 01:01:24;;;;;;;30.40;9.07;;;;;;;;;;5046412;28;20017;-46
2021/11/11 01:03:51;;;;;;;30.02;8.73;;;;;;;;;;5042860;28;20495;-46
2021/11/11 01:06:18;;;;;;;38.50;10.30;;;;;;;;;;5048167;28;20021;-42
2021/11/11 01:08:45;;;;;;;44.53;11.60;;;;;;;;;;5037458;28;20025;-44
2021/11/11 01:11:12;;;;;;;61.85;13.45;;;;;;;;;;5045894;28;20025;-49
2021/11/11 01:13:39;;;;;;;51.72;11.77;;;;;;;;;;5026309;28;20029;-43
2021/11/11 01:16:07;;;;;;;40.88;12.05;;;;;;;;;;5040945;28;20140;-47
2021/11/11 01:18:34;;;;;;;42.35;10.82;;;;;;;;;;5047730;28;20029;-41
2021/11/11 01:21:01;;;;;;;43.70;10.00;;;;;;;;;;5049341;28;20017;-48
2021/11/11 01:23:28;;;;;;;38.83;9.88;;;;;;;;;;5048245;28;20086;-46
2021/11/11 01:25:55;;;;;;;43.70;9.52;;;;;;;;;;5049675;28;20029;-34
2021/11/11 01:28:22;;;;;;;34.65;9.45;;;;;;;;;;5050084;28;20128;-41
2021/11/11 01:30:49;;;;;;;38.83;9.68;;;;;;;;;;5048876;28;20021;-39
2021/11/11 01:33:17;;;;;;;29.10;8.30;;;;;;;;;;5048376;28;20081;-34
2021/11/11 01:35:44;;;;;;;29.00;8.70;;;;;;;;;;5050069;28;20096;-37
2021/11/11 01:38:11;;;;;;;43.03;8.40;;;;;;;;;;5049635;28;20051;-40
2021/11/11 01:40:38;;;;;;;34.97;7.93;;;;;;;;;;5050162;28;20075;-40
2021/11/11 01:43:07;;;;;;;28.38;8.02;;;;;;;;;;5048835;28;20029;-37
2021/11/11 01:45:36;;;;;;;28.67;7.35;;;;;;;;;;5049525;28;20439;-33
2021/11/11 01:48:04;;;;;;;32.55;8.05;;;;;;;;;;5048222;28;20024;-41
2021/11/11 01:50:31;;;;;;;29.17;7.15;;;;;;;;;;5049852;28;20017;-35
2021/11/11 01:52:59;;;;;;;30.45;8.02;;;;;;;;;;5050374;28;20431;-33
2021/11/11 01:55:27;;;;;;;25.08;7.32;;;;;;;;;;5050350;28;20021;-37
2021/11/11 01:57:54;;;;;;;27.92;6.40;;;;;;;;;;5049808;28;20118;-34
2021/11/11 02:00:29;;;;;;;22.52;6.97;;;;;;;;;;5040954;28;21325;-33
2021/11/11 02:02:57;;;;;;;20.60;6.78;;;;;;;;;;5048747;28;20051;-33
2021/11/11 02:05:25;;;;;;;19.67;6.35;;;;;;;;;;5048908;28;20032;-34
2021/11/11 02:07:52;;;;;;;18.73;5.10;;;;;;;;;;5042648;28;20159;-40
2021/11/11 02:10:20;;;;;;;17.27;5.50;;;;;;;;;;5030718;28;20017;-39
2021/11/11 02:12:47;;;;;;;22.13;5.97;;;;;;;;;;5033660;28;20499;-39
2021/11/11 02:15:15;;;;;;;27.80;6.88;;;;;;;;;;5051699;28;20037;-36
2021/11/11 02:17:42;;;;;;;28.33;6.05;;;;;;;;;;5048991;28;20053;-40
2021/11/11 02:20:14;;;;;;;23.42;5.80;;;;;;;;;;5034115;28;20026;-39
2021/11/11 02:22:41;;;;;;;29.05;5.65;;;;;;;;;;5038909;28;20040;-40
2021/11/11 02:25:09;;;;;;;19.98;5.88;;;;;;;;;;5051723;28;20033;-39
2021/11/11 02:27:36;;;;;;;20.30;4.78;;;;;;;;;;5053749;28;20056;-39
2021/11/11 02:30:06;;;;;;;20.20;4.95;;;;;;;;;;5054101;28;20032;-39
2021/11/11 02:32:34;;;;;;;11.45;2.80;;;;;;;;;;5053594;28;20504;-39
2021/11/11 02:35:01;;;;;;;14.45;3.42;;;;;;;;;;5043111;28;20087;-42
2021/11/11 02:37:29;;;;;;;18.13;4.20;;;;;;;;;;5050992;28;20021;-36
2021/11/11 02:39:56;;;;;;;17.80;3.72;;;;;;;;;;5050961;28;20024;-34
2021/11/11 02:42:23;;;;;;;10.02;2.88;;;;;;;;;;5032530;28;20075;-37
2021/11/11 02:44:51;;;;;;;13.90;3.60;;;;;;;;;;5038438;28;20511;-41
2021/11/11 02:47:18;;;;;;;16.52;3.97;;;;;;;;;;5048996;28;20025;-39
2021/11/11 02:49:45;;;;;;;12.48;3.70;;;;;;;;;;5053997;28;20103;-44
2021/11/11 02:52:12;;;;;;;11.75;3.03;;;;;;;;;;5054308;28;20040;-44
2021/11/11 02:54:40;;;;;;;10.23;3.20;;;;;;;;;;5054240;28;20045;-44
2021/11/11 02:57:25;;;;;;;10.38;2.95;;;;;;;;;;5054048;28;20126;-44
2021/11/11 02:59:56;;;;;;;16.00;3.40;;;;;;;;;;5053791;28;20376;-43
2021/11/11 03:02:25;;;;;;;9.63;2.80;;;;;;;;;;5053895;28;20412;-44
2021/11/11 03:04:53;;;;;;;11.70;3.30;;;;;;;;;;5053967;28;20473;-36
2021/11/11 03:07:20;;;;;;;16.35;4.05;;;;;;;;;;5054179;28;20029;-35
2021/11/11 03:09:48;;;;;;;15.63;3.05;;;;;;;;;;5054199;28;20017;-37
2021/11/11 03:12:15;;;;;;;13.00;3.38;;;;;;;;;;5054081;28;20029;-36
2021/11/11 03:14:43;;;;;;;12.75;3.35;;;;;;;;;;5053853;28;20021;-36
2021/11/11 03:17:11;;;;;;;9.55;2.95;;;;;;;;;;5054083;28;20115;-38
2021/11/11 03:19:39;;;;;;;12.45;3.25;;;;;;;;;;5052775;28;20381;-38
2021/11/11 03:22:07;;;;;;;9.82;3.10;;;;;;;;;;5053737;28;20029;-38
2021/11/11 03:24:34;;;;;;;11.40;3.03;;;;;;;;;;5053702;28;20489;-37
2021/11/11 03:27:02;;;;;;;11.10;2.85;;;;;;;;;;5053650;28;20388;-39
2021/11/11 03:29:29;;;;;;;13.50;3.35;;;;;;;;;;5053765;28;20028;-41
2021/11/11 03:31:56;;;;;;;15.95;3.28;;;;;;;;;;5053667;28;20032;-41
2021/11/11 03:34:23;;;;;;;10.60;2.63;;;;;;;;;;5053778;28;20481;-39
2021/11/11 03:36:51;;;;;;;8.02;2.72;;;;;;;;;;5053631;28;20033;-36
2021/11/11 03:39:18;;;;;;;11.10;2.70;;;;;;;;;;5053645;28;20028;-36
2021/11/11 03:41:46;;;;;;;12.60;2.78;;;;;;;;;;5053589;28;20036;-35
2021/11/11 03:44:15;;;;;;;11.38;2.60;;;;;;;;;;5053207;28;20035;-37
2021/11/11 03:46:47;;;;;;;10.38;2.83;;;;;;;;;;5053394;28;20480;-35
2021/11/11 03:49:15;;;;;;;10.18;2.88;;;;;;;;;;5053447;28;20060;-38
2021/11/11 03:51:42;;;;;;;8.75;2.67;;;;;;;;;;5053497;28;20087;-36
2021/11/11 03:54:11;;;;;;;11.40;3.17;;;;;;;;;;5053149;28;20029;-41
2021/11/11 03:56:40;;;;;;;8.18;2.42;;;;;;;;;;5051563;28;20112;-41
2021/11/11 03:59:07;;;;;;;13.05;3.03;;;;;;;;;;5052559;28;20409;-35
2021/11/11 04:01:34;;;;;;;9.60;2.60;;;;;;;;;;5053061;28;20052;-33
2021/11/11 04:04:03;;;;;;;10.18;3.10;;;;;;;;;;5052911;28;20037;-35
2021/11/11 04:06:30;;;;;;;8.82;2.72;;;;;;;;;;5053228;28;20017;-34
2021/11/11 04:08:59;;;;;;;8.23;2.20;;;;;;;;;;5052877;28;20032;-34
2021/11/11 04:11:30;;;;;;;8.68;2.40;;;;;;;;;;5052779;28;20021;-37
2021/11/11 04:13:57;;;;;;;7.90;2.42;;;;;;;;;;5052993;28;20392;-37
2021/11/11 04:16:24;;;;;;;9.57;2.30;;;;;;;;;;5052852;28;20090;-38
2021/11/11 04:18:52;;;;;;;11.50;2.58;;;;;;;;;;5052935;28;20029;-42
2021/11/11 04:21:19;;;;;;;12.77;2.70;;;;;;;;;;5052692;28;20017;-42
2021/11/11 04:23:47;;;;;;;8.48;2.30;;;;;;;;;;5052717;28;20040;-36
2021/11/11 04:28:55;;;;;;;7.00;2.40;;;;;;;;;;5052885;28;20033;-36
2021/11/11 04:31:40;;;;;;;14.70;2.90;;;;;;;;;;5052868;28;20138;-37
2021/11/11 04:34:11;;;;;;;10.57;2.67;;;;;;;;;;5052706;28;20017;-43
2021/11/11 04:39:30;;;;;;;6.72;2.38;;;;;;;;;;5052476;28;20029;-36
2021/11/11 04:45:03;;;;;;;6.65;2.20;;;;;;;;;;5052310;28;20075;-35
2021/11/11 05:01:34;;;;;;;5.82;2.05;;;;;;;;;;5052399;28;20110;-39
2021/11/11 05:06:01;;;;;;;3.55;1.63;;;;;;;;;;5052185;28;20370;-40
2021/11/11 05:08:28;;;;;;;3.85;1.40;;;;;;;;;;5052141;28;20032;-37
2021/11/11 05:10:56;;;;;;;7.10;1.92;;;;;;;;;;5052146;28;20029;-38
2021/11/11 05:13:23;;;;;;;7.50;2.10;;;;;;;;;;5052137;28;20544;-37
2021/11/11 05:15:50;;;;;;;3.88;1.90;;;;;;;;;;5052042;28;20036;-40
2021/11/11 05:18:18;;;;;;;5.32;1.63;;;;;;;;;;5052033;28;20067;-39
2021/11/11 05:20:45;;;;;;;7.72;2.03;;;;;;;;;;5052097;28;20326;-39
2021/11/11 05:23:11;;;;;;;4.78;1.77;;;;;;;;;;5051714;28;20040;-39
2021/11/11 05:25:39;;;;;;;6.05;2.00;;;;;;;;;;5051984;28;20017;-42
2021/11/11 05:28:06;;;;;;;4.70;1.80;;;;;;;;;;5051974;28;20029;-41
2021/11/11 05:30:33;;;;;;;5.82;1.77;;;;;;;;;;5051571;28;20032;-39
2021/11/11 05:33:00;;;;;;;5.93;1.73;;;;;;;;;;5051588;28;20025;-42
2021/11/11 05:35:27;;;;;;;8.00;2.30;;;;;;;;;;5051802;28;20111;-38
2021/11/11 05:37:55;;;;;;;4.97;1.73;;;;;;;;;;5051833;28;20029;-40
2021/11/11 05:40:22;;;;;;;4.80;1.70;;;;;;;;;;5051899;28;20025;-38
2021/11/11 05:42:49;;;;;;;5.85;1.60;;;;;;;;;;5051813;28;20040;-35
2021/11/11 05:45:17;;;;;;;4.53;1.70;;;;;;;;;;5051748;28;20504;-38
2021/11/11 05:47:44;;;;;;;4.50;1.92;;;;;;;;;;5051617;28;20055;-40
2021/11/11 05:50:13;;;;;;;5.03;1.67;;;;;;;;;;5055743;28;20366;-46
2021/11/11 05:52:40;;;;;;;4.95;1.55;;;;;;;;;;5055744;28;20021;-37
2021/11/11 05:55:07;;;;;;;5.53;1.70;;;;;;;;;;5055457;28;20060;-40
2021/11/11 05:57:34;;;;;;;5.25;1.60;;;;;;;;;;5054619;28;20041;-34
2021/11/11 06:00:01;;;;;;;10.20;1.73;;;;;;;;;;5055278;28;20025;-38
2021/11/11 06:02:28;;;;;;;5.60;1.73;;;;;;;;;;5051261;28;20420;-38
2021/11/11 06:04:55;;;;;;;4.22;1.55;;;;;;;;;;5051348;28;20041;-40
2021/11/11 06:07:23;;;;;;;4.38;1.60;;;;;;;;;;5054931;28;20039;-37
2021/11/11 06:09:50;;;;;;;3.92;1.60;;;;;;;;;;5055360;28;20021;-40
2021/11/11 06:12:17;;;;;;;6.18;1.98;;;;;;;;;;5054976;28;20353;-36
2021/11/11 06:14:44;;;;;;;5.35;1.50;;;;;;;;;;5055293;28;20033;-37
2021/11/11 06:17:11;;;;;;;6.10;1.60;;;;;;;;;;5055137;28;20032;-41
2021/11/11 06:19:40;;;;;;;4.05;1.50;;;;;;;;;;5055025;28;20021;-39
2021/11/11 06:22:08;;;;;;;4.18;1.20;;;;;;;;;;5055319;28;20021;-45
2021/11/11 06:24:35;;;;;;;5.07;1.60;;;;;;;;;;5054883;28;20045;-41
2021/11/11 06:27:02;;;;;;;4.70;1.52;;;;;;;;;;5055358;28;20025;-41
2021/11/11 06:29:29;;;;;;;5.22;1.90;;;;;;;;;;5055135;28;20164;-41
2021/11/11 06:31:56;;;;;;;4.38;1.52;;;;;;;;;;5054837;28;20142;-42
2021/11/11 06:34:23;;;;;;;4.22;1.65;;;;;;;;;;5054770;28;20025;-40
2021/11/11 06:36:50;;;;;;;4.25;1.40;;;;;;;;;;5054692;28;20066;-43
2021/11/11 06:39:17;;;;;;;4.10;1.52;;;;;;;;;;5054587;28;20490;-39
2021/11/11 06:41:44;;;;;;;3.78;1.58;;;;;;;;;;5054744;28;20035;-43
2021/11/11 06:44:18;;;;;;;2.60;1.23;;;;;;;;;;5054727;28;20487;-38
2021/11/11 06:46:46;;;;;;;5.28;2.10;;;;;;;;;;5054444;28;20032;-43
2021/11/11 06:49:13;;;;;;;3.10;1.50;;;;;;;;;;5054652;28;20099;-44
2021/11/11 06:51:40;;;;;;;4.10;1.30;;;;;;;;;;5054637;28;20437;-40
2021/11/11 06:54:08;;;;;;;4.90;1.40;;;;;;;;;;5054387;28;20053;-42
2021/11/11 06:56:36;;;;;;;3.03;0.95;;;;;;;;;;5054204;28;20037;-42
2021/11/11 06:59:03;;;;;;;4.55;1.35;;;;;;;;;;5054185;28;20056;-38
2021/11/11 07:01:32;;;;;;;6.10;1.20;;;;;;;;;;5053662;28;20104;-46
2021/11/11 07:03:59;;;;;;;5.20;1.23;;;;;;;;;;5054105;28;20033;-40
2021/11/11 07:06:27;;;;;;;3.85;1.50;;;;;;;;;;5054389;28;20025;-40
2021/11/11 07:08:54;;;;;;;3.78;1.60;;;;;;;;;;5054436;28;20044;-37
2021/11/11 07:11:21;;;;;;;4.00;1.35;;;;;;;;;;5053044;28;20484;-38
2021/11/11 07:13:48;;;;;;;6.60;1.42;;;;;;;;;;5054063;28;20477;-37
2021/11/11 07:16:16;;;;;;;2.53;1.00;;;;;;;;;;5053978;28;20025;-37
2021/11/11 07:18:43;;;;;;;5.25;1.45;;;;;;;;;;5053830;28;20025;-40
2021/11/11 07:21:10;;;;;;;2.58;1.25;;;;;;;;;;5054099;28;20096;-36
2021/11/11 07:23:37;;;;;;;5.50;1.45;;;;;;;;;;5053865;28;20033;-37
2021/11/11 07:26:04;;;;;;;4.13;1.40;;;;;;;;;;5053855;28;20028;-38
2021/11/11 07:28:31;;;;;;;2.75;1.15;;;;;;;;;;5053771;28;20025;-41
2021/11/11 07:30:58;;;;;;;3.65;1.35;;;;;;;;;;5053740;28;20142;-38
2021/11/11 07:33:26;;;;;;;5.28;1.30;;;;;;;;;;5053607;28;20063;-37
2021/11/11 07:35:53;;;;;;;4.10;1.15;;;;;;;;;;5053633;28;20021;-36
2021/11/11 07:38:20;;;;;;;3.40;0.93;;;;;;;;;;5052504;28;20477;-39
2021/11/11 07:40:47;;;;;;;2.88;1.42;;;;;;;;;;5053607;28;20028;-36
2021/11/11 07:43:14;;;;;;;4.07;1.50;;;;;;;;;;5053400;28;20116;-38
2021/11/11 07:45:42;;;;;;;2.85;1.17;;;;;;;;;;5053598;28;20025;-38
2021/11/11 07:48:09;;;;;;;2.95;1.08;;;;;;;;;;5053347;28;20484;-42
2021/11/11 07:50:37;;;;;;;4.65;1.58;;;;;;;;;;5053404;28;20055;-41
2021/11/11 07:53:09;;;;;;;3.00;1.33;;;;;;;;;;5053546;28;20044;-41
2021/11/11 07:55:36;;;;;;;3.97;1.80;;;;;;;;;;5053288;28;20041;-38
2021/11/11 07:58:03;;;;;;;3.95;1.20;;;;;;;;;;5052852;28;20775;-34
2021/11/11 08:00:30;;;;;;;3.78;1.20;;;;;;;;;;5053071;28;20029;-36
2021/11/11 08:02:57;;;;;;;2.40;0.95;;;;;;;;;;5051828;28;20086;-34
2021/11/11 08:05:25;;;;;;;3.33;1.20;;;;;;;;;;5052019;28;20365;-35
2021/11/11 08:07:52;;;;;;;3.85;0.93;;;;;;;;;;5053031;28;20044;-37
2021/11/11 08:10:20;;;;;;;3.75;1.42;;;;;;;;;;5053217;28;20025;-35
2021/11/11 08:12:47;;;;;;;2.90;1.08;;;;;;;;;;5051781;28;20683;-35
2021/11/11 08:15:15;;;;;;;3.80;1.50;;;;;;;;;;5053009;28;20025;-35
2021/11/11 08:17:42;;;;;;;3.70;1.27;;;;;;;;;;5053059;28;20057;-36
2021/11/11 08:20:10;;;;;;;5.88;1.60;;;;;;;;;;5052735;28;20021;-35
2021/11/11 08:22:37;;;;;;;4.32;1.20;;;;;;;;;;5052615;28;20353;-35
2021/11/11 08:25:07;;;;;;;2.53;1.13;;;;;;;;;;5051553;28;20040;-35
2021/11/11 08:27:34;;;;;;;6.38;1.33;;;;;;;;;;5052391;28;20025;-36
2021/11/11 08:30:01;;;;;;;3.90;1.05;;;;;;;;;;5052681;28;20026;-38
2021/11/11 08:32:28;;;;;;;2.42;1.00;;;;;;;;;;5052688;28;20025;-42
2021/11/11 08:34:55;;;;;;;4.72;1.20;;;;;;;;;;5052680;28;20033;-41
2021/11/11 08:37:22;;;;;;;5.43;1.20;;;;;;;;;;5052615;28;20096;-40
2021/11/11 08:39:49;;;;;;;3.58;1.23;;;;;;;;;;5052658;28;20032;-41
2021/11/11 08:42:16;;;;;;;5.15;1.40;;;;;;;;;;5052344;28;20033;-42
2021/11/11 08:44:44;;;;;;;2.25;1.13;;;;;;;;;;5052315;28;20060;-36
2021/11/11 08:47:13;;;;;;;2.15;1.02;;;;;;;;;;5052627;28;20025;-41
2021/11/11 08:49:42;;;;;;;3.88;1.02;;;;;;;;;;5052426;28;20028;-39
2021/11/11 08:52:09;;;;;;;2.72;1.30;;;;;;;;;;5052191;28;20017;-36
2021/11/11 08:54:37;;;;;;;4.50;0.95;;;;;;;;;;5052082;28;20362;-35
2021/11/11 08:57:04;;;;;;;2.67;1.30;;;;;;;;;;5052377;28;20025;-42
2021/11/11 08:59:31;;;;;;;4.30;1.40;;;;;;;;;;5052291;28;20041;-36
2021/11/11 09:01:58;;;;;;;4.50;1.08;;;;;;;;;;5052291;28;20020;-38
2021/11/11 09:04:25;;;;;;;2.67;0.98;;;;;;;;;;5052149;28;20040;-39
2021/11/11 09:06:52;;;;;;;2.53;0.90;;;;;;;;;;5052154;28;20021;-38
2021/11/11 09:09:20;;;;;;;4.78;1.40;;;;;;;;;;5052020;28;20104;-38
2021/11/11 09:11:48;;;;;;;3.38;1.00;;;;;;;;;;5052113;28;20021;-40
2021/11/11 09:14:16;;;;;;;2.47;1.20;;;;;;;;;;5052133;28;20033;-41
2021/11/11 09:16:43;;;;;;;4.97;1.38;;;;;;;;;;5052023;28;20025;-40
2021/11/11 09:19:10;;;;;;;2.42;1.00;;;;;;;;;;5052199;28;20025;-43
2021/11/11 09:21:38;;;;;;;2.90;1.30;;;;;;;;;;5052018;28;20032;-41
2021/11/11 09:24:05;;;;;;;3.17;0.93;;;;;;;;;;5053965;28;20067;-36
2021/11/11 09:26:32;;;;;;;2.92;1.30;;;;;;;;;;5056282;28;20524;-36
2021/11/11 09:29:00;;;;;;;3.90;1.00;;;;;;;;;;5056097;28;20032;-39
2021/11/11 09:31:27;;;;;;;4.68;1.42;;;;;;;;;;5055816;28;20104;-43
2021/11/11 09:33:54;;;;;;;2.95;1.27;;;;;;;;;;5056237;28;20025;-36
2021/11/11 09:36:21;;;;;;;4.32;1.20;;;;;;;;;;5055732;28;20112;-41
2021/11/11 09:38:48;;;;;;;1.95;0.80;;;;;;;;;;5055695;28;20028;-41
2021/11/11 09:41:16;;;;;;;3.65;0.90;;;;;;;;;;5056017;28;20057;-37
2021/11/11 09:43:44;;;;;;;2.65;1.10;;;;;;;;;;5055704;28;20082;-37
2021/11/11 09:46:12;;;;;;;1.98;1.00;;;;;;;;;;5055765;28;20477;-36
2021/11/11 09:48:40;;;;;;;4.65;1.30;;;;;;;;;;5055758;28;20029;-39
2021/11/11 09:51:09;;;;;;;3.95;1.23;;;;;;;;;;5055814;28;20362;-38
2021/11/11 09:53:48;;;;;;;3.92;1.23;;;;;;;;;;5055013;28;20103;-37
2021/11/11 09:59:01;;;;;;;4.22;1.10;;;;;;;;;;5055461;28;20060;-41
2021/11/11 10:01:28;;;;;;;3.10;1.30;;;;;;;;;;5055721;28;20017;-38
2021/11/11 10:03:55;;;;;;;3.22;1.17;;;;;;;;;;5055234;28;20500;-35
2021/11/11 10:06:24;;;;;;;4.90;1.10;;;;;;;;;;5055296;28;20046;-38
2021/11/11 10:08:53;;;;;;;3.78;1.13;;;;;;;;;;5055430;28;20025;-37
2021/11/11 10:11:37;;;;;;;2.35;1.00;;;;;;;;;;5055473;28;20028;-38
2021/11/11 10:14:08;;;;;;;3.40;1.27;;;;;;;;;;5055432;28;20361;-43
2021/11/11 10:16:40;;;;;;;3.95;1.17;;;;;;;;;;5055123;28;20468;-37
2021/11/11 10:19:08;;;;;;;3.85;1.00;;;;;;;;;;5055194;28;20033;-38
2021/11/11 10:24:22;;;;;;;5.63;1.60;;;;;;;;;;5055118;28;20033;-37
2021/11/11 10:26:52;;;;;;;4.88;1.30;;;;;;;;;;5054953;28;20096;-38
2021/11/11 10:29:39;;;;;;;3.00;0.98;;;;;;;;;;5054772;28;20033;-42
2021/11/11 10:32:08;;;;;;;3.85;1.10;;;;;;;;;;5041334;28;20049;-37
2021/11/11 10:34:45;;;;;;;3.75;1.10;;;;;;;;;;5053874;28;20022;-39
2021/11/11 10:37:12;;;;;;;3.50;1.30;;;;;;;;;;5055025;28;20021;-37
2021/11/11 10:39:41;;;;;;;3.38;1.00;;;;;;;;;;5054792;28;20017;-34
2021/11/11 10:42:17;;;;;;;3.22;1.20;;;;;;;;;;5054587;28;20485;-37
2021/11/11 10:44:44;;;;;;;4.50;1.10;;;;;;;;;;5053335;28;20044;-36
2021/11/11 10:47:12;;;;;;;2.58;1.05;;;;;;;;;;5054821;28;20024;-40
2021/11/11 10:49:40;;;;;;;3.58;1.10;;;;;;;;;;5054555;28;20054;-36
2021/11/11 10:52:26;;;;;;;5.15;1.30;;;;;;;;;;5054397;28;20104;-39
2021/11/11 10:55:05;;;;;;;4.57;1.10;;;;;;;;;;5054419;28;20075;-38
2021/11/11 10:57:43;;;;;;;4.13;1.13;;;;;;;;;;5054220;28;20045;-35
2021/11/11 11:00:16;;;;;;;3.28;1.10;;;;;;;;;;5054559;28;20492;-36
2021/11/11 11:02:49;;;;;;;2.53;0.93;;;;;;;;;;5054338;28;20052;-38
2021/11/11 11:05:16;;;;;;;3.15;1.00;;;;;;;;;;5054397;28;20036;-38
2021/11/11 11:07:45;;;;;;;2.65;1.10;;;;;;;;;;5054156;28;20017;-39
2021/11/11 11:10:17;;;;;;;4.65;1.10;;;;;;;;;;5054281;28;20024;-39
2021/11/11 11:12:44;;;;;;;3.10;1.02;;;;;;;;;;5054214;28;20029;-38
2021/11/11 11:15:31;;;;;;;4.63;1.35;;;;;;;;;;5054164;28;20111;-41
2021/11/11 11:17:58;;;;;;;3.17;0.90;;;;;;;;;;5003431;28;20081;-38
2021/11/11 11:20:28;;;;;;;4.47;1.27;;;;;;;;;;5032815;28;20104;-45
2021/11/11 11:23:11;;;;;;;2.95;1.00;;;;;;;;;;5034152;28;20070;-38
2021/11/11 11:25:39;;;;;;;5.70;1.20;;;;;;;;;;5034269;28;20033;-38
2021/11/11 11:28:25;;;;;;;2.22;1.00;;;;;;;;;;5033979;28;20032;-37
2021/11/11 11:30:53;;;;;;;3.35;1.00;;;;;;;;;;5033864;28;20025;-35
2021/11/11 11:33:33;;;;;;;4.53;1.08;;;;;;;;;;5033834;28;20499;-38
2021/11/11 11:36:00;;;;;;;6.25;1.83;;;;;;;;;;5033870;28;20069;-36
2021/11/11 11:38:28;;;;;;;5.60;1.38;;;;;;;;;;5034031;28;20064;-39
2021/11/11 11:40:55;;;;;;;7.78;1.90;;;;;;;;;;5033756;28;20104;-39
2021/11/11 11:43:29;;;;;;;4.50;1.10;;;;;;;;;;5033472;28;20082;-42
2021/11/11 11:46:11;;;;;;;5.43;1.20;;;;;;;;;;5033596;28;20492;-36
2021/11/11 11:48:38;;;;;;;6.88;1.38;;;;;;;;;;5033830;28;20096;-41
2021/11/11 11:51:07;;;;;;;6.03;1.25;;;;;;;;;;5051267;28;20033;-38
2021/11/11 11:53:40;;;;;;;3.10;1.08;;;;;;;;;;5052155;28;20036;-37
2021/11/11 11:56:15;;;;;;;6.10;1.23;;;;;;;;;;5047427;28;20170;-38
2021/11/11 11:59:07;;;;;;;5.65;1.42;;;;;;;;;;5051276;28;20041;-41
2021/11/11 12:01:42;;;;;;;4.57;1.23;;;;;;;;;;5052236;28;20033;-44
2021/11/11 12:04:19;;;;;;;3.80;1.10;;;;;;;;;;5049176;28;20168;-42
2021/11/11 12:10:08;;;;;;;3.80;1.17;;;;;;;;;;5017554;28;20040;-45
2021/11/11 12:28:30;;;;;;;5.35;1.27;;;;;;;;;;5011084;28;20037;-48
2021/11/11 12:40:08;;;;;;;4.55;1.45;;;;;;;;;;5031754;28;20084;-44
2021/11/11 12:42:42;;;;;;;8.85;1.42;;;;;;;;;;5036302;28;20502;-44
2021/11/11 12:45:09;;;;;;;5.18;1.52;;;;;;;;;;5051830;28;20056;-41
2021/11/11 12:47:41;;;;;;;7.78;1.70;;;;;;;;;;5052098;28;20044;-40
2021/11/11 12:50:26;;;;;;;7.53;1.70;;;;;;;;;;5051676;28;20500;-38
2021/11/11 12:53:15;;;;;;;6.45;1.75;;;;;;;;;;5050495;28;20488;-43
2021/11/11 12:55:43;;;;;;;6.45;1.60;;;;;;;;;;5051120;28;20496;-36
2021/11/11 12:58:12;;;;;;;4.43;1.27;;;;;;;;;;5049646;28;20053;-47
2021/11/11 13:00:41;;;;;;;5.95;1.50;;;;;;;;;;5051526;28;20037;-37
2021/11/11 13:03:09;;;;;;;12.00;1.70;;;;;;;;;;5050581;28;20029;-39
2021/11/11 13:05:58;;;;;;;16.05;2.42;;;;;;;;;;5048606;28;20064;-42
2021/11/11 13:08:45;;;;;;;9.68;2.30;;;;;;;;;;5048962;28;20230;-46
2021/11/11 13:11:12;;;;;;;11.75;2.28;;;;;;;;;;5051057;28;20025;-41
2021/11/11 13:13:40;;;;;;;10.23;2.00;;;;;;;;;;5049499;28;20382;-42
2021/11/11 13:16:14;;;;;;;8.70;1.65;;;;;;;;;;5049327;28;20040;-41
2021/11/11 13:18:52;;;;;;;8.98;1.88;;;;;;;;;;5049207;28;20041;-42
2021/11/11 13:21:29;;;;;;;11.38;2.10;;;;;;;;;;5050195;28;20127;-43
2021/11/11 13:24:25;;;;;;;10.63;1.77;;;;;;;;;;5050149;28;20044;-41
2021/11/11 16:00:06;;;;;;;79.97;10.10;;;;;;;;;;5036296;28;20056;-57
2021/11/11 16:22:03;;;;;;;63.00;7.30;;;;;;;;;;5019806;28;20123;-43
2021/11/11 16:24:35;;;;;;;78.97;8.02;;;;;;;;;;5044456;28;20049;-40
2021/11/11 16:27:04;;;;;;;84.95;8.63;;;;;;;;;;5043804;28;20025;-44
2021/11/11 16:29:31;;;;;;;69.13;7.63;;;;;;;;;;5036695;28;20074;-46
2021/11/11 16:32:00;;;;;;;55.60;7.20;;;;;;;;;;5041457;28;20043;-43
2021/11/11 16:34:27;;;;;;;47.08;5.65;;;;;;;;;;5043733;28;20032;-47
2021/11/11 16:36:55;;;;;;;41.25;5.95;;;;;;;;;;5040887;28;20026;-47
2021/11/11 16:39:22;;;;;;;48.40;5.28;;;;;;;;;;5049894;28;20028;-47
2021/11/11 16:41:49;;;;;;;49.20;5.75;;;;;;;;;;5040607;28;20034;-47
2021/11/11 16:44:17;;;;;;;39.13;5.93;;;;;;;;;;5039131;28;20041;-50
2021/11/11 16:46:44;;;;;;;45.30;5.60;;;;;;;;;;5046340;28;20093;-45
2021/11/11 16:49:12;;;;;;;43.90;5.85;;;;;;;;;;5042221;28;20037;-46
2021/11/11 16:51:39;;;;;;;39.95;5.22;;;;;;;;;;5040463;28;20416;-48
2021/11/11 16:54:06;;;;;;;41.15;6.05;;;;;;;;;;5034334;28;20064;-37
2021/11/11 16:56:34;;;;;;;42.42;5.70;;;;;;;;;;5041394;28;20013;-51
2021/11/11 16:59:01;;;;;;;39.15;5.35;;;;;;;;;;5042157;28;20532;-41
2021/11/11 17:01:28;;;;;;;49.28;6.60;;;;;;;;;;5045870;28;20021;-45
2021/11/11 17:03:55;;;;;;;51.78;5.40;;;;;;;;;;5038173;28;20076;-53
2021/11/11 17:06:22;;;;;;;32.50;5.25;;;;;;;;;;5041673;28;20049;-47
2021/11/11 17:08:49;;;;;;;37.03;5.05;;;;;;;;;;5039756;28;20470;-46
2021/11/11 17:11:17;;;;;;;37.50;5.15;;;;;;;;;;5038828;28;20029;-53
2021/11/11 17:13:45;;;;;;;46.08;5.53;;;;;;;;;;5042493;28;20071;-47
2021/11/11 17:16:20;;;;;;;43.53;6.13;;;;;;;;;;5031374;28;20026;-49
2021/11/11 17:18:49;;;;;;;36.67;5.40;;;;;;;;;;5036283;28;20020;-45
2021/11/11 17:21:17;;;;;;;48.03;6.38;;;;;;;;;;5042739;28;20063;-44
2021/11/11 17:23:58;;;;;;;44.00;5.32;;;;;;;;;;5045619;28;20029;-47
2021/11/11 17:29:19;;;;;;;40.30;5.78;;;;;;;;;;5028433;28;20033;-59
2021/11/11 17:31:48;;;;;;;40.05;6.38;;;;;;;;;;5035785;28;20022;-35
2021/11/11 17:34:15;;;;;;;44.50;6.00;;;;;;;;;;5034202;28;20491;-48
2021/11/11 17:36:42;;;;;;;52.45;6.32;;;;;;;;;;5044621;28;20083;-49
2021/11/11 17:39:11;;;;;;;38.85;5.40;;;;;;;;;;5037357;28;20025;-44
2021/11/11 17:41:42;;;;;;;38.33;5.57;;;;;;;;;;5034771;28;20025;-57
2021/11/11 17:44:11;;;;;;;40.67;5.43;;;;;;;;;;5034265;28;20186;-36
2021/11/11 17:46:42;;;;;;;42.08;5.15;;;;;;;;;;5034134;28;20017;-42
2021/11/11 17:49:20;;;;;;;49.55;6.45;;;;;;;;;;5037012;28;20052;-40
2021/11/11 17:56:51;;;;;;;31.48;5.57;;;;;;;;;;5049533;28;20032;-54
2021/11/11 17:59:19;;;;;;;35.47;5.40;;;;;;;;;;5044929;28;20480;-50
2021/11/11 18:01:47;;;;;;;40.40;5.50;;;;;;;;;;5047690;28;20056;-41
2021/11/11 18:04:15;;;;;;;39.35;5.53;;;;;;;;;;5039265;28;20045;-41
2021/11/11 18:06:50;;;;;;;38.28;5.15;;;;;;;;;;5041144;28;20059;-39
2021/11/11 18:09:24;;;;;;;43.53;5.90;;;;;;;;;;5040769;28;20047;-44
2021/11/11 18:11:54;;;;;;;32.10;5.28;;;;;;;;;;5040486;28;20021;-50
2021/11/11 18:14:22;;;;;;;42.28;5.38;;;;;;;;;;5036008;28;20035;-45
2021/11/11 18:16:53;;;;;;;36.17;5.75;;;;;;;;;;5040030;28;20030;-59
2021/11/11 18:19:21;;;;;;;35.08;5.45;;;;;;;;;;5036824;28;20380;-40
2021/11/11 18:21:48;;;;;;;32.63;4.78;;;;;;;;;;5038090;28;20021;-42
2021/11/11 18:24:15;;;;;;;41.10;5.50;;;;;;;;;;5037218;28;20556;-41
2021/11/11 18:26:43;;;;;;;42.55;5.53;;;;;;;;;;5040796;28;20026;-48
2021/11/11 18:32:05;;;;;;;40.65;5.75;;;;;;;;;;5042388;28;20021;-42
2021/11/11 18:36:56;;;;;;;50.05;6.22;;;;;;;;;;5049160;28;20028;-38
2021/11/11 18:39:23;;;;;;;;;;;;;;;;;;5044346;28;20033;-53
2021/11/11 18:41:51;;;;;;;49.60;7.25;;;;;;;;;;5045476;28;19905;-47
2021/11/11 18:44:20;;;;;;;38.70;6.22;;;;;;;;;;5046165;28;20033;-50
2021/11/11 18:46:57;;;;;;;31.20;5.38;;;;;;;;;;5044776;28;20022;-53
2021/11/11 18:49:24;;;;;;;39.97;5.55;;;;;;;;;;5038231;28;20036;-55
2021/11/11 18:51:51;;;;;;;34.85;5.57;;;;;;;;;;5046354;28;20021;-43